createdAt,value
2023-02-11T00:00:48.360Z,64.10
2023-02-11T00:01:48.048Z,69.50
2023-02-11T00:02:48.234Z,67.00
2023-02-11T00:03:48.117Z,70.40
2023-02-11T00:04:48.037Z,64.90
2023-02-11T00:05:48.242Z,75.90
2023-02-11T00:06:47.978Z,67.40
2023-02-11T00:07:47.983Z,69.80
2023-02-11T00:08:47.936Z,69.00
2023-02-11T00:09:48.002Z,69.60
2023-02-11T00:10:48.248Z,62.50
2023-02-11T00:11:48.007Z,66.00
2023-02-11T00:12:47.894Z,64.10
2023-02-11T00:13:47.917Z,69.00
2023-02-11T00:14:47.927Z,65.60
2023-02-11T00:15:48.171Z,66.60
2023-02-11T00:16:48.034Z,63.50
2023-02-11T00:17:47.900Z,67.60
2023-02-11T00:18:47.861Z,67.80
2023-02-11T00:19:47.868Z,68.60
2023-02-11T00:20:47.839Z,66.10
2023-02-11T00:21:47.819Z,58.40
2023-02-11T00:22:47.787Z,65.00
2023-02-11T00:23:47.817Z,68.80
2023-02-11T00:24:47.803Z,66.60
2023-02-11T00:25:47.901Z,62.60
2023-02-11T00:26:47.756Z,67.10
2023-02-11T00:27:48.426Z,63.60
2023-02-11T00:28:47.764Z,61.30
2023-02-11T00:29:47.783Z,63.00
2023-02-11T00:30:47.845Z,62.30
2023-02-11T00:31:48.074Z,64.50
2023-02-11T00:32:47.723Z,62.50
2023-02-11T00:33:47.813Z,66.60
2023-02-11T00:34:47.725Z,65.70
2023-02-11T00:35:47.677Z,62.60
2023-02-11T00:36:47.738Z,65.70
2023-02-11T00:37:47.776Z,63.50
2023-02-11T00:38:47.655Z,62.30
2023-02-11T00:39:47.649Z,59.20
2023-02-11T00:40:47.632Z,61.40
2023-02-11T00:41:47.673Z,61.90
2023-02-11T00:42:47.608Z,61.90
2023-02-11T00:43:47.601Z,59.70
2023-02-11T00:44:47.648Z,57.20
2023-02-11T00:45:47.758Z,58.30
2023-02-11T00:46:47.569Z,58.70
2023-02-11T00:47:47.658Z,57.40
2023-02-11T00:48:47.567Z,60.40
2023-02-11T00:49:47.564Z,63.90
2023-02-11T00:50:47.565Z,58.20
2023-02-11T00:51:47.668Z,59.30
2023-02-11T00:52:47.536Z,59.70
2023-02-11T00:53:47.632Z,57.60
2023-02-11T00:54:47.510Z,56.20
2023-02-11T00:55:47.623Z,57.10
2023-02-11T00:56:47.512Z,59.70
2023-02-11T00:57:47.446Z,53.10
2023-02-11T00:58:47.447Z,58.80
2023-02-11T00:59:47.502Z,61.30
2023-02-11T01:00:47.444Z,53.80
2023-02-11T01:01:47.591Z,54.80
2023-02-11T01:02:47.399Z,55.00
2023-02-11T01:03:47.445Z,61.00
2023-02-11T01:04:47.461Z,52.20
2023-02-11T01:05:47.597Z,55.10
2023-02-11T01:06:47.458Z,60.80
2023-02-11T01:07:47.504Z,56.80
2023-02-11T01:08:47.360Z,55.10
2023-02-11T01:09:47.345Z,53.60
2023-02-11T01:10:47.363Z,48.00
2023-02-11T01:11:47.324Z,57.10
2023-02-11T01:12:47.338Z,50.20
2023-02-11T01:13:47.342Z,55.50
2023-02-11T01:14:47.306Z,54.40
2023-02-11T01:15:47.367Z,54.40
2023-02-11T01:16:47.318Z,52.10
2023-02-11T01:17:47.271Z,55.00
2023-02-11T01:18:47.309Z,51.30
2023-02-11T01:19:47.283Z,49.80
2023-02-11T01:20:47.244Z,54.60
2023-02-11T01:21:47.276Z,52.60
2023-02-11T01:22:47.955Z,53.40
2023-02-11T01:23:47.242Z,53.70
2023-02-11T01:24:47.194Z,49.40
2023-02-11T01:25:48.243Z,46.60
2023-02-11T01:26:47.208Z,57.50
2023-02-11T01:27:47.580Z,52.70
2023-02-11T01:28:47.150Z,53.10
2023-02-11T01:29:47.252Z,51.00
2023-02-11T01:30:47.176Z,50.70
2023-02-11T01:31:47.206Z,54.80
2023-02-11T01:32:47.107Z,50.00
2023-02-11T01:33:47.280Z,52.30
2023-02-11T01:34:47.170Z,53.10
2023-02-11T01:35:47.153Z,49.60
2023-02-11T01:36:47.093Z,54.20
2023-02-11T01:37:47.115Z,51.40
2023-02-11T01:38:47.095Z,52.10
2023-02-11T01:39:47.071Z,52.90
2023-02-11T01:40:47.058Z,47.40
2023-02-11T01:41:47.075Z,50.60
2023-02-11T01:42:49.406Z,53.30
2023-02-11T01:43:47.947Z,51.50
2023-02-11T01:44:46.982Z,47.30
2023-02-11T01:45:47.078Z,53.70
2023-02-11T01:46:47.065Z,48.10
2023-02-11T01:47:46.970Z,49.70
2023-02-11T01:48:47.029Z,45.90
2023-02-11T01:49:46.978Z,47.90
2023-02-11T01:50:47.061Z,49.10
2023-02-11T01:51:46.939Z,49.20
2023-02-11T01:52:46.998Z,50.00
2023-02-11T01:53:46.941Z,51.60
2023-02-11T01:54:46.913Z,50.60
2023-02-11T01:55:46.904Z,48.50
2023-02-11T01:56:47.448Z,47.00
2023-02-11T01:57:46.948Z,45.50
2023-02-11T01:58:46.880Z,48.00
2023-02-11T01:59:46.894Z,49.50
2023-02-11T02:00:46.836Z,50.20
2023-02-11T02:01:46.932Z,46.80
2023-02-11T02:02:46.833Z,48.40
2023-02-11T02:03:46.887Z,54.30
2023-02-11T02:04:46.857Z,47.80
2023-02-11T02:05:46.784Z,49.00
2023-02-11T02:06:46.804Z,49.30
2023-02-11T02:07:46.768Z,49.30
2023-02-11T02:08:46.789Z,49.70
2023-02-11T02:09:46.893Z,47.90
2023-02-11T02:10:46.765Z,44.90
2023-02-11T02:11:46.760Z,44.40
2023-02-11T02:12:46.759Z,45.50
2023-02-11T02:13:46.711Z,48.30
2023-02-11T02:14:46.703Z,47.60
2023-02-11T02:15:46.725Z,44.40
2023-02-11T02:16:46.692Z,45.80
2023-02-11T02:17:46.698Z,48.30
2023-02-11T02:18:46.649Z,42.30
2023-02-11T02:19:46.639Z,45.30
2023-02-11T02:20:46.642Z,47.60
2023-02-11T02:21:46.658Z,48.00
2023-02-11T02:22:46.609Z,48.30
2023-02-11T02:23:46.641Z,48.60
2023-02-11T02:24:46.611Z,48.70
2023-02-11T02:25:46.590Z,43.10
2023-02-11T02:26:46.595Z,45.10
2023-02-11T02:27:46.581Z,46.90
2023-02-11T02:28:46.579Z,48.90
2023-02-11T02:29:46.550Z,43.50
2023-02-11T02:30:46.531Z,47.30
2023-02-11T02:31:46.576Z,47.90
2023-02-11T02:32:46.535Z,47.40
2023-02-11T02:33:46.521Z,46.20
2023-02-11T02:34:46.530Z,45.00
2023-02-11T02:35:46.510Z,46.00
2023-02-11T02:36:46.463Z,46.60
2023-02-11T02:37:46.481Z,46.40
2023-02-11T02:38:46.453Z,46.30
2023-02-11T02:39:46.433Z,45.10
2023-02-11T02:40:46.442Z,46.30
2023-02-11T02:41:46.421Z,44.40
2023-02-11T02:42:46.458Z,42.90
2023-02-11T02:43:46.440Z,43.30
2023-02-11T02:44:46.409Z,42.50
2023-02-11T02:45:46.369Z,42.80
2023-02-11T02:46:46.455Z,44.90
2023-02-11T02:47:46.441Z,42.30
2023-02-11T02:48:46.392Z,43.00
2023-02-11T02:49:46.360Z,43.10
2023-02-11T02:50:46.373Z,45.70
2023-02-11T02:51:46.339Z,45.80
2023-02-11T02:52:46.347Z,45.50
2023-02-11T02:53:46.311Z,43.70
2023-02-11T02:54:46.326Z,44.90
2023-02-11T02:55:46.287Z,41.40
2023-02-11T02:56:46.300Z,46.30
2023-02-11T02:57:46.400Z,46.30
2023-02-11T02:58:47.344Z,46.60
2023-02-11T02:59:46.243Z,44.10
2023-02-11T03:00:46.287Z,48.70
2023-02-11T03:01:46.226Z,41.40
2023-02-11T03:02:46.260Z,41.80
2023-02-11T03:03:46.279Z,43.80
2023-02-11T03:04:46.226Z,40.10
2023-02-11T03:05:46.212Z,39.20
2023-02-11T03:06:46.218Z,45.00
2023-02-11T03:07:46.165Z,44.80
2023-02-11T03:08:46.259Z,50.00
2023-02-11T03:09:46.219Z,44.70
2023-02-11T03:10:46.144Z,46.70
2023-02-11T03:11:46.160Z,43.40
2023-02-11T03:12:46.184Z,41.50
2023-02-11T03:13:46.216Z,45.40
2023-02-11T03:14:46.138Z,42.80
2023-02-11T03:15:46.078Z,43.80
2023-02-11T03:16:46.086Z,41.80
2023-02-11T03:17:46.100Z,42.40
2023-02-11T03:18:46.086Z,42.60
2023-02-11T03:19:46.079Z,44.00
2023-02-11T03:20:46.067Z,40.70
2023-02-11T03:21:46.030Z,42.90
2023-02-11T03:22:46.064Z,39.00
2023-02-11T03:23:46.088Z,41.80
2023-02-11T03:24:46.021Z,41.10
2023-02-11T03:25:46.008Z,46.50
2023-02-11T03:26:45.974Z,40.50
2023-02-11T03:27:46.002Z,44.50
2023-02-11T03:28:45.996Z,41.50
2023-02-11T03:29:45.968Z,40.70
2023-02-11T03:30:45.973Z,45.10
2023-02-11T03:31:46.054Z,41.20
2023-02-11T03:32:45.940Z,44.40
2023-02-11T03:33:45.904Z,43.40
2023-02-11T03:34:45.915Z,39.80
2023-02-11T03:35:45.893Z,41.80
2023-02-11T03:36:45.937Z,40.10
2023-02-11T03:37:45.905Z,48.10
2023-02-11T03:38:45.886Z,43.10
2023-02-11T03:39:45.862Z,44.90
2023-02-11T03:40:45.885Z,44.20
2023-02-11T03:41:45.892Z,45.60
2023-02-11T03:42:45.859Z,45.40
2023-02-11T03:43:45.852Z,42.90
2023-02-11T03:44:45.841Z,44.50
2023-02-11T03:45:45.873Z,43.20
2023-02-11T03:46:45.830Z,41.30
2023-02-11T03:47:45.806Z,41.90
2023-02-11T03:48:45.770Z,42.40
2023-02-11T03:49:45.739Z,42.90
2023-02-11T03:50:45.762Z,38.60
2023-02-11T03:51:45.729Z,42.00
2023-02-11T03:52:45.734Z,44.00
2023-02-11T03:53:45.697Z,43.80
2023-02-11T03:54:45.786Z,45.00
2023-02-11T03:55:45.734Z,43.80
2023-02-11T03:56:45.706Z,43.90
2023-02-11T03:57:45.700Z,40.20
2023-02-11T03:58:45.761Z,44.10
2023-02-11T03:59:45.658Z,43.80
2023-02-11T04:00:45.717Z,42.50
2023-02-11T04:01:45.676Z,42.00
2023-02-11T04:02:45.806Z,43.40
2023-02-11T04:03:45.637Z,44.00
2023-02-11T04:04:45.639Z,44.20
2023-02-11T04:05:45.621Z,39.90
2023-02-11T04:06:45.613Z,42.80
2023-02-11T04:07:45.618Z,43.70
2023-02-11T04:08:45.630Z,44.10
2023-02-11T04:09:45.551Z,44.60
2023-02-11T04:10:45.553Z,46.10
2023-02-11T04:11:45.567Z,44.40
2023-02-11T04:12:45.560Z,46.40
2023-02-11T04:13:45.532Z,40.10
2023-02-11T04:14:45.549Z,42.10
2023-02-11T04:15:47.818Z,37.90
2023-02-11T04:16:45.516Z,42.80
2023-02-11T04:17:45.487Z,42.20
2023-02-11T04:18:45.500Z,46.80
2023-02-11T04:19:45.442Z,42.90
2023-02-11T04:20:45.485Z,44.10
2023-02-11T04:21:45.421Z,36.30
2023-02-11T04:22:45.471Z,41.60
2023-02-11T04:23:45.515Z,42.90
2023-02-11T04:24:45.420Z,38.80
2023-02-11T04:25:45.393Z,43.10
2023-02-11T04:26:45.448Z,42.10
2023-02-11T04:27:45.383Z,39.20
2023-02-11T04:28:45.395Z,44.50
2023-02-11T04:29:45.348Z,41.50
2023-02-11T04:30:45.400Z,40.50
2023-02-11T04:31:45.393Z,42.80
2023-02-11T04:32:45.328Z,43.50
2023-02-11T04:33:45.342Z,41.40
2023-02-11T04:34:45.379Z,47.60
2023-02-11T04:35:45.307Z,46.70
2023-02-11T04:36:45.352Z,45.60
2023-02-11T04:37:45.298Z,43.00
2023-02-11T04:38:45.301Z,44.10
2023-02-11T04:39:45.275Z,44.70
2023-02-11T04:40:45.245Z,43.20
2023-02-11T04:41:45.273Z,43.50
2023-02-11T04:42:45.266Z,41.70
2023-02-11T04:43:45.223Z,41.80
2023-02-11T04:44:45.232Z,42.80
2023-02-11T04:45:45.275Z,39.80
2023-02-11T04:46:45.211Z,41.30
2023-02-11T04:47:45.190Z,43.70
2023-02-11T04:48:45.194Z,44.30
2023-02-11T04:49:45.173Z,40.10
2023-02-11T04:50:45.182Z,45.80
2023-02-11T04:51:47.595Z,40.20
2023-02-11T04:52:45.190Z,43.80
2023-02-11T04:53:45.139Z,44.30
2023-02-11T04:54:45.118Z,46.40
2023-02-11T04:55:45.127Z,43.80
2023-02-11T04:56:45.112Z,41.10
2023-02-11T04:57:45.093Z,43.90
2023-02-11T04:58:45.137Z,43.90
2023-02-11T04:59:45.092Z,43.60
2023-02-11T05:00:45.076Z,48.60
2023-02-11T05:01:45.029Z,45.20
2023-02-11T05:02:45.103Z,45.10
2023-02-11T05:03:45.077Z,42.00
2023-02-11T05:04:45.030Z,42.10
2023-02-11T05:05:45.025Z,43.60
2023-02-11T05:06:45.008Z,43.70
2023-02-11T05:07:44.975Z,49.10
2023-02-11T05:08:44.981Z,45.80
2023-02-11T05:09:44.975Z,46.20
2023-02-11T05:10:44.967Z,47.30
2023-02-11T05:11:44.943Z,45.50
2023-02-11T05:12:44.976Z,49.00
2023-02-11T05:13:44.918Z,40.70
2023-02-11T05:14:44.918Z,46.70
2023-02-11T05:15:44.947Z,46.10
2023-02-11T05:16:44.950Z,45.20
2023-02-11T05:17:44.869Z,42.70
2023-02-11T05:18:44.890Z,42.40
2023-02-11T05:19:44.862Z,39.90
2023-02-11T05:20:44.894Z,47.20
2023-02-11T05:22:00.216Z,42.10
2023-02-11T05:22:44.854Z,47.80
2023-02-11T05:23:44.821Z,50.90
2023-02-11T05:24:44.832Z,48.70
2023-02-11T05:25:44.804Z,49.00
2023-02-11T05:26:44.778Z,47.90
2023-02-11T05:27:44.810Z,50.40
2023-02-11T05:28:44.794Z,49.90
2023-02-11T05:29:44.839Z,49.30
2023-02-11T05:30:44.819Z,51.20
2023-02-11T05:31:44.728Z,54.90
2023-02-11T05:32:44.734Z,54.00
2023-02-11T05:33:44.709Z,44.50
2023-02-11T05:34:44.716Z,51.70
2023-02-11T05:35:44.716Z,49.50
2023-02-11T05:36:44.720Z,46.40
2023-02-11T05:37:44.747Z,50.30
2023-02-11T05:38:44.691Z,51.70
2023-02-11T05:39:44.673Z,53.10
2023-02-11T05:40:44.689Z,54.20
2023-02-11T05:41:44.664Z,51.70
2023-02-11T05:42:44.624Z,51.00
2023-02-11T05:43:44.658Z,51.10
2023-02-11T05:44:44.621Z,58.10
2023-02-11T05:45:44.586Z,50.80
2023-02-11T05:46:44.674Z,52.10
2023-02-11T05:47:44.605Z,52.00
2023-02-11T05:48:44.565Z,50.90
2023-02-11T05:49:44.596Z,53.00
2023-02-11T05:50:44.606Z,47.70
2023-02-11T05:51:44.525Z,53.60
2023-02-11T05:52:44.539Z,53.20
2023-02-11T05:53:44.509Z,51.40
2023-02-11T05:54:44.532Z,51.00
2023-02-11T05:55:44.494Z,49.50
2023-02-11T05:56:45.055Z,50.10
2023-02-11T05:57:44.518Z,54.10
2023-02-11T05:58:44.694Z,52.70
2023-02-11T05:59:44.486Z,55.50
2023-02-11T06:00:44.490Z,53.50
2023-02-11T06:01:44.469Z,50.00
2023-02-11T06:02:44.506Z,53.40
2023-02-11T06:03:44.480Z,55.30
2023-02-11T06:04:44.461Z,56.70
2023-02-11T06:05:44.399Z,58.20
2023-02-11T06:06:44.406Z,56.30
2023-02-11T06:07:44.421Z,46.40
2023-02-11T06:08:44.400Z,54.50
2023-02-11T06:09:44.364Z,56.90
2023-02-11T06:10:44.485Z,56.90
2023-02-11T06:11:44.352Z,52.90
2023-02-11T06:12:44.361Z,50.20
2023-02-11T06:13:44.370Z,59.00
2023-02-11T06:14:44.336Z,52.60
2023-02-11T06:15:44.322Z,58.70
2023-02-11T06:16:44.287Z,57.60
2023-02-11T06:17:44.344Z,51.20
2023-02-11T06:18:44.291Z,57.40
2023-02-11T06:19:44.255Z,60.10
2023-02-11T06:20:44.296Z,51.10
2023-02-11T06:21:44.731Z,53.90
2023-02-11T06:22:44.277Z,57.70
2023-02-11T06:23:44.224Z,57.90
2023-02-11T06:25:00.350Z,56.90
2023-02-11T06:25:44.266Z,57.50
2023-02-11T06:26:44.240Z,52.70
2023-02-11T06:27:44.220Z,57.60
2023-02-11T06:28:44.264Z,57.70
2023-02-11T06:29:44.125Z,58.10
2023-02-11T06:30:44.163Z,59.20
2023-02-11T06:31:44.194Z,50.80
2023-02-11T06:32:45.738Z,56.70
2023-02-11T06:33:44.066Z,57.60
2023-02-11T06:34:44.162Z,50.90
2023-02-11T06:35:44.154Z,56.90
2023-02-11T06:36:44.088Z,59.40
2023-02-11T06:37:44.097Z,67.20
2023-02-11T06:38:44.075Z,59.80
2023-02-11T06:39:44.015Z,58.20
2023-02-11T06:40:44.003Z,55.20
2023-02-11T06:41:44.057Z,59.40
2023-02-11T06:42:44.013Z,62.60
2023-02-11T06:43:43.972Z,53.80
2023-02-11T06:44:43.983Z,60.60
2023-02-11T06:45:43.973Z,62.10
2023-02-11T06:46:43.996Z,59.90
2023-02-11T06:47:43.979Z,57.10
2023-02-11T06:48:45.035Z,64.00
2023-02-11T06:49:43.915Z,57.50
2023-02-11T06:50:43.909Z,57.80
2023-02-11T06:51:43.955Z,57.20
2023-02-11T06:52:43.905Z,61.60
2023-02-11T06:53:43.920Z,58.10
2023-02-11T06:54:43.874Z,57.40
2023-02-11T06:55:43.850Z,61.80
2023-02-11T06:56:43.848Z,66.00
2023-02-11T06:57:43.873Z,66.70
2023-02-11T06:58:43.866Z,55.60
2023-02-11T06:59:43.851Z,62.10
2023-02-11T07:00:43.831Z,58.20
2023-02-11T07:01:43.890Z,62.50
2023-02-11T07:02:43.922Z,61.70
2023-02-11T07:03:43.801Z,65.10
2023-02-11T07:04:43.779Z,63.50
2023-02-11T07:05:43.795Z,61.80
2023-02-11T07:06:43.757Z,58.10
2023-02-11T07:07:43.747Z,59.10
2023-02-11T07:08:43.779Z,64.70
2023-02-11T07:09:43.795Z,67.40
2023-02-11T07:10:43.720Z,67.30
2023-02-11T07:11:43.726Z,61.90
2023-02-11T07:12:43.725Z,66.70
2023-02-11T07:13:43.706Z,63.80
2023-02-11T07:14:43.660Z,66.00
2023-02-11T07:15:43.668Z,64.80
2023-02-11T07:16:43.630Z,63.90
2023-02-11T07:17:43.690Z,67.00
2023-02-11T07:18:43.617Z,65.20
2023-02-11T07:19:43.618Z,65.30
2023-02-11T07:20:43.622Z,74.70
2023-02-11T07:21:43.622Z,63.00
2023-02-11T07:22:43.638Z,71.60
2023-02-11T07:23:43.597Z,68.50
2023-02-11T07:24:43.582Z,70.10
2023-02-11T07:25:43.559Z,67.10
2023-02-11T07:26:43.539Z,66.70
2023-02-11T07:27:43.548Z,65.30
2023-02-11T07:28:43.630Z,68.40
2023-02-11T07:29:43.524Z,72.70
2023-02-11T07:30:43.520Z,71.20
2023-02-11T07:31:43.659Z,74.40
2023-02-11T07:32:43.471Z,72.60
2023-02-11T07:33:43.497Z,74.10
2023-02-11T07:34:43.494Z,67.80
2023-02-11T07:35:43.472Z,67.40
2023-02-11T07:36:43.490Z,73.90
2023-02-11T07:37:43.466Z,73.20
2023-02-11T07:38:43.418Z,68.10
2023-02-11T07:39:43.426Z,69.20
2023-02-11T07:40:43.403Z,65.60
2023-02-11T07:41:43.426Z,73.30
2023-02-11T07:42:43.396Z,70.90
2023-02-11T07:43:43.382Z,69.90
2023-02-11T07:44:43.364Z,71.70
2023-02-11T07:45:43.451Z,75.90
2023-02-11T07:46:43.378Z,71.50
2023-02-11T07:47:43.360Z,75.70
2023-02-11T07:48:43.323Z,72.10
2023-02-11T07:49:43.373Z,68.20
2023-02-11T07:50:43.376Z,68.90
2023-02-11T07:51:43.304Z,73.50
2023-02-11T07:52:43.280Z,72.60
2023-02-11T07:53:43.315Z,75.20
2023-02-11T07:54:43.339Z,72.70
2023-02-11T07:55:43.276Z,73.70
2023-02-11T07:56:43.246Z,74.40
2023-02-11T07:57:43.234Z,70.10
2023-02-11T07:58:43.278Z,70.70
2023-02-11T07:59:43.300Z,70.90
2023-02-11T08:00:43.226Z,75.60
2023-02-11T08:01:43.296Z,72.20
2023-02-11T08:02:43.363Z,73.60
2023-02-11T08:03:43.228Z,72.20
2023-02-11T08:04:43.210Z,72.50
2023-02-11T08:05:43.198Z,73.10
2023-02-11T08:06:43.163Z,75.30
2023-02-11T08:07:43.277Z,72.40
2023-02-11T08:08:43.183Z,77.50
2023-02-11T08:09:43.144Z,68.40
2023-02-11T08:10:43.244Z,78.80
2023-02-11T08:11:43.136Z,67.40
2023-02-11T08:12:43.101Z,70.10
2023-02-11T08:13:43.096Z,74.40
2023-02-11T08:14:43.170Z,70.10
2023-02-11T08:15:43.072Z,68.40
2023-02-11T08:16:43.103Z,68.40
2023-02-11T08:17:43.049Z,73.00
2023-02-11T08:18:43.019Z,73.70
2023-02-11T08:19:43.089Z,70.70
2023-02-11T08:20:43.004Z,67.80
2023-02-11T08:21:43.028Z,70.30
2023-02-11T08:22:43.009Z,73.30
2023-02-11T08:23:42.993Z,74.50
2023-02-11T08:24:42.989Z,146.50
2023-02-11T08:25:42.991Z,121.70
2023-02-11T08:26:42.975Z,74.90
2023-02-11T08:27:42.949Z,72.30
2023-02-11T08:28:42.970Z,70.20
2023-02-11T08:29:42.929Z,80.00
2023-02-11T08:30:42.987Z,81.00
2023-02-11T08:31:43.070Z,78.60
2023-02-11T08:32:42.992Z,76.90
2023-02-11T08:33:42.885Z,75.70
2023-02-11T08:34:42.878Z,81.20
2023-02-11T08:35:42.867Z,75.90
2023-02-11T08:36:42.851Z,75.70
2023-02-11T08:37:42.837Z,75.10
2023-02-11T08:38:42.842Z,64.40
2023-02-11T08:39:42.812Z,76.90
2023-02-11T08:40:42.896Z,74.40
2023-02-11T08:41:42.843Z,67.90
2023-02-11T08:42:42.840Z,70.40
2023-02-11T08:43:42.815Z,72.40
2023-02-11T08:44:43.032Z,70.90
2023-02-11T08:45:42.831Z,74.50
2023-02-11T08:46:42.755Z,72.10
2023-02-11T08:47:42.745Z,69.10
2023-02-11T08:48:42.809Z,74.30
2023-02-11T08:49:42.753Z,71.70
2023-02-11T08:50:42.719Z,70.00
2023-02-11T08:51:42.726Z,72.80
2023-02-11T08:52:42.724Z,73.00
2023-02-11T08:53:42.708Z,74.80
2023-02-11T08:54:42.668Z,75.20
2023-02-11T08:55:42.679Z,71.40
2023-02-11T08:56:42.696Z,77.70
2023-02-11T08:57:42.660Z,71.70
2023-02-11T08:58:42.664Z,72.40
2023-02-11T08:59:42.654Z,68.50
2023-02-11T09:00:42.600Z,68.40
2023-02-11T09:01:42.635Z,68.10
2023-02-11T09:02:42.636Z,72.20
2023-02-11T09:03:42.613Z,71.50
2023-02-11T09:04:42.585Z,71.40
2023-02-11T09:05:42.564Z,70.30
2023-02-11T09:06:42.636Z,68.00
2023-02-11T09:07:42.546Z,78.20
2023-02-11T09:08:45.325Z,74.60
2023-02-11T09:09:42.548Z,67.00
2023-02-11T09:10:42.559Z,80.20
2023-02-11T09:11:42.548Z,73.60
2023-02-11T09:12:42.614Z,72.30
2023-02-11T09:13:42.495Z,72.40
2023-02-11T09:14:42.492Z,70.60
2023-02-11T09:15:42.463Z,72.80
2023-02-11T09:16:42.525Z,73.00
2023-02-11T09:17:42.452Z,75.90
2023-02-11T09:18:42.492Z,75.60
2023-02-11T09:19:42.429Z,78.80
2023-02-11T09:20:42.401Z,70.60
2023-02-11T09:21:42.501Z,66.20
2023-02-11T09:22:42.406Z,72.30
2023-02-11T09:23:42.440Z,74.30
2023-02-11T09:24:42.385Z,71.70
2023-02-11T09:25:42.393Z,72.10
2023-02-11T09:26:42.373Z,78.80
2023-02-11T09:27:42.356Z,75.80
2023-02-11T09:28:42.368Z,78.20
2023-02-11T09:29:42.342Z,74.20
2023-02-11T09:30:42.412Z,77.60
2023-02-11T09:31:42.444Z,71.60
2023-02-11T09:32:42.419Z,73.40
2023-02-11T09:33:42.314Z,74.00
2023-02-11T09:34:42.276Z,77.60
2023-02-11T09:35:42.288Z,74.00
2023-02-11T09:36:42.315Z,77.70
2023-02-11T09:37:42.257Z,74.10
2023-02-11T09:38:42.251Z,74.80
2023-02-11T09:39:42.230Z,76.60
2023-02-11T09:40:42.316Z,77.20
2023-02-11T09:41:42.225Z,72.60
2023-02-11T09:42:42.209Z,76.20
2023-02-11T09:43:42.232Z,75.70
2023-02-11T09:44:42.178Z,72.30
2023-02-11T09:45:42.166Z,76.60
2023-02-11T09:46:42.192Z,75.30
2023-02-11T09:47:42.165Z,80.80
2023-02-11T09:48:42.155Z,73.50
2023-02-11T09:49:42.123Z,76.40
2023-02-11T09:50:42.171Z,71.20
2023-02-11T09:51:42.141Z,74.20
2023-02-11T09:52:42.104Z,80.30
2023-02-11T09:53:42.240Z,75.60
2023-02-11T09:54:42.070Z,82.50
2023-02-11T09:55:42.113Z,83.00
2023-02-11T09:56:42.081Z,70.50
2023-02-11T09:57:42.053Z,77.20
2023-02-11T09:58:42.051Z,78.10
2023-02-11T09:59:42.060Z,79.80
2023-02-11T10:00:42.024Z,78.10
2023-02-11T10:01:42.067Z,84.60
2023-02-11T10:02:41.994Z,77.10
2023-02-11T10:03:42.002Z,79.20
2023-02-11T10:04:42.015Z,84.00
2023-02-11T10:05:42.075Z,83.80
2023-02-11T10:06:42.012Z,82.70
2023-02-11T10:07:41.954Z,78.60
2023-02-11T10:08:41.934Z,79.50
2023-02-11T10:09:41.923Z,82.40
2023-02-11T10:10:41.906Z,88.40
2023-02-11T10:11:41.922Z,83.70
2023-02-11T10:12:41.960Z,86.10
2023-02-11T10:13:42.703Z,86.90
2023-02-11T10:14:41.880Z,83.10
2023-02-11T10:15:41.917Z,87.50
2023-02-11T10:16:41.911Z,88.10
2023-02-11T10:17:41.907Z,89.30
2023-02-11T10:18:41.841Z,96.60
2023-02-11T10:19:41.844Z,88.80
2023-02-11T10:20:41.787Z,87.00
2023-02-11T10:21:41.837Z,82.40
2023-02-11T10:22:41.805Z,85.80
2023-02-11T10:23:41.780Z,84.60
2023-02-11T10:24:41.791Z,90.50
2023-02-11T10:25:44.290Z,81.50
2023-02-11T10:26:41.777Z,77.40
2023-02-11T10:27:41.784Z,77.80
2023-02-11T10:28:41.756Z,78.50
2023-02-11T10:29:41.717Z,78.10
2023-02-11T10:30:41.732Z,80.00
2023-02-11T10:31:41.813Z,78.00
2023-02-11T10:32:41.732Z,80.80
2023-02-11T10:33:41.700Z,78.30
2023-02-11T10:34:41.663Z,83.90
2023-02-11T10:35:41.735Z,78.10
2023-02-11T10:36:41.669Z,75.70
2023-02-11T10:37:44.404Z,78.60
2023-02-11T10:38:41.718Z,75.20
2023-02-11T10:39:41.639Z,76.30
2023-02-11T10:40:41.676Z,78.50
2023-02-11T10:41:41.594Z,76.30
2023-02-11T10:42:41.678Z,77.60
2023-02-11T10:43:41.593Z,79.10
2023-02-11T10:44:41.646Z,76.20
2023-02-11T10:45:41.568Z,77.30
2023-02-11T10:46:41.559Z,75.70
2023-02-11T10:47:41.525Z,81.90
2023-02-11T10:48:41.568Z,79.10
2023-02-11T10:49:41.536Z,76.60
2023-02-11T10:50:41.480Z,74.80
2023-02-11T10:51:41.497Z,75.00
2023-02-11T10:52:41.583Z,74.30
2023-02-11T10:53:41.469Z,74.80
2023-02-11T10:54:41.475Z,77.70
2023-02-11T10:55:41.449Z,71.60
2023-02-11T10:56:41.493Z,69.20
2023-02-11T10:57:41.428Z,76.90
2023-02-11T10:58:41.426Z,74.00
2023-02-11T10:59:41.426Z,73.50
2023-02-11T11:00:41.729Z,72.70
2023-02-11T11:01:41.488Z,71.40
2023-02-11T11:02:41.361Z,79.60
2023-02-11T11:03:41.410Z,72.50
2023-02-11T11:04:41.491Z,69.50
2023-02-11T11:05:41.337Z,70.30
2023-02-11T11:06:41.400Z,70.70
2023-02-11T11:07:41.323Z,73.90
2023-02-11T11:08:41.354Z,74.60
2023-02-11T11:09:41.290Z,73.90
2023-02-11T11:10:41.377Z,73.10
2023-02-11T11:11:41.283Z,78.10
2023-02-11T11:12:42.360Z,68.90
2023-02-11T11:13:41.333Z,70.60
2023-02-11T11:14:41.250Z,72.60
2023-02-11T11:15:41.305Z,69.60
2023-02-11T11:16:41.258Z,67.10
2023-02-11T11:17:41.264Z,75.60
2023-02-11T11:18:41.217Z,64.50
2023-02-11T11:19:41.195Z,73.00
2023-02-11T11:20:41.251Z,73.10
2023-02-11T11:21:41.187Z,73.50
2023-02-11T11:22:41.186Z,66.50
2023-02-11T11:23:41.227Z,73.60
2023-02-11T11:24:41.180Z,66.70
2023-02-11T11:25:41.151Z,68.30
2023-02-11T11:26:41.200Z,66.90
2023-02-11T11:27:41.136Z,72.10
2023-02-11T11:28:41.321Z,69.10
2023-02-11T11:29:41.109Z,68.40
2023-02-11T11:30:41.109Z,69.30
2023-02-11T11:31:41.105Z,69.60
2023-02-11T11:32:41.071Z,62.50
2023-02-11T11:33:41.089Z,66.60
2023-02-11T11:34:41.081Z,80.70
2023-02-11T11:35:41.061Z,66.40
2023-02-11T11:36:41.089Z,64.00
2023-02-11T11:37:41.045Z,66.30
2023-02-11T11:38:41.121Z,62.20
2023-02-11T11:39:40.984Z,61.60
2023-02-11T11:40:41.124Z,67.50
2023-02-11T11:41:41.075Z,68.90
2023-02-11T11:42:40.971Z,63.60
2023-02-11T11:43:40.988Z,71.40
2023-02-11T11:44:40.934Z,64.30
2023-02-11T11:45:40.934Z,63.00
2023-02-11T11:46:40.982Z,65.30
2023-02-11T11:47:40.961Z,61.60
2023-02-11T11:48:40.954Z,68.70
2023-02-11T11:49:40.889Z,70.10
2023-02-11T11:50:40.922Z,66.30
2023-02-11T11:51:40.856Z,65.20
2023-02-11T11:52:40.873Z,68.40
2023-02-11T11:53:40.864Z,64.20
2023-02-11T11:54:40.843Z,66.40
2023-02-11T11:55:40.840Z,69.90
2023-02-11T11:56:40.823Z,64.40
2023-02-11T11:57:40.851Z,66.90
2023-02-11T11:58:40.940Z,64.20
2023-02-11T11:59:40.773Z,67.20
2023-02-11T12:00:40.834Z,69.40
2023-02-11T12:01:40.802Z,62.20
2023-02-11T12:02:40.825Z,65.10
2023-02-11T12:03:40.766Z,64.00
2023-02-11T12:04:40.810Z,71.00
2023-02-11T12:05:40.714Z,67.70
2023-02-11T12:06:40.740Z,65.60
2023-02-11T12:07:40.706Z,65.10
2023-02-11T12:08:40.795Z,65.60
2023-02-11T12:09:40.681Z,61.40
2023-02-11T12:10:40.700Z,64.90
2023-02-11T12:11:40.648Z,62.20
2023-02-11T12:12:40.696Z,62.60
2023-02-11T12:13:40.633Z,60.50
2023-02-11T12:14:40.641Z,64.50
2023-02-11T12:15:40.623Z,59.80
2023-02-11T12:16:40.630Z,57.80
2023-02-11T12:17:40.590Z,61.50
2023-02-11T12:18:40.585Z,61.30
2023-02-11T12:19:40.579Z,62.60
2023-02-11T12:20:40.598Z,58.00
2023-02-11T12:21:55.157Z,59.50
2023-02-11T12:22:40.611Z,56.60
2023-02-11T12:23:40.574Z,56.50
2023-02-11T12:24:40.582Z,54.20
2023-02-11T12:25:40.524Z,56.80
2023-02-11T12:26:40.526Z,55.50
2023-02-11T12:27:40.532Z,53.70
2023-02-11T12:28:40.588Z,59.60
2023-02-11T12:29:40.550Z,53.30
2023-02-11T12:30:40.532Z,54.20
2023-02-11T12:31:40.579Z,55.20
2023-02-11T12:32:40.482Z,51.10
2023-02-11T12:33:40.442Z,53.50
2023-02-11T12:34:40.474Z,51.40
2023-02-11T12:35:40.436Z,55.30
2023-02-11T12:36:40.405Z,52.40
2023-02-11T12:37:40.408Z,51.60
2023-02-11T12:38:40.397Z,49.10
2023-02-11T12:39:40.385Z,51.00
2023-02-11T12:40:40.414Z,48.30
2023-02-11T12:41:40.370Z,50.70
2023-02-11T12:42:40.366Z,49.30
2023-02-11T12:43:40.393Z,48.30
2023-02-11T12:44:40.411Z,49.50
2023-02-11T12:45:40.318Z,51.50
2023-02-11T12:46:40.367Z,47.30
2023-02-11T12:47:40.334Z,50.50
2023-02-11T12:48:40.300Z,45.70
2023-02-11T12:49:40.266Z,49.50
2023-02-11T12:50:40.282Z,46.30
2023-02-11T12:51:40.297Z,46.90
2023-02-11T12:52:40.290Z,45.10